Time;durP1;ratioP1;P1;durP2;ratioP2;P2;SDS_P1;SDS_P2;PMS_P1;PMS_P2;Temp;Humidity;BMP_temperature;BMP_pressure;BME280_temperature;BME280_humidity;BME280_pressure;Samples;Min_cycle;Max_cycle;Signal;HPM_P1;HPM_P2
2022/08/27 05:57:02;;;;;;;19.08;10.15;;;;;;;24.25;62.49;100315.66;4897445;29;20693;-66
2022/08/27 06:02:17;;;;;;;13.43;10.15;;;;;;;24.23;62.67;100320.47;4895910;29;20221;-66
2022/08/27 06:04:45;;;;;;;18.00;11.02;;;;;;;24.26;62.77;100316.47;4896368;29;20213;-65
2022/08/27 06:07:13;;;;;;;16.25;10.63;;;;;;;24.28;62.68;100320.56;4891781;29;20221;-67
2022/08/27 06:09:42;;;;;;;14.68;11.10;;;;;;;24.26;62.90;100322.72;4896819;29;20609;-67
2022/08/27 06:12:11;;;;;;;16.77;11.55;;;;;;;24.25;62.75;100321.06;4896080;29;20537;-66
2022/08/27 06:14:39;;;;;;;20.38;10.63;;;;;;;24.25;63.02;100325.66;4896233;29;20678;-65
2022/08/27 06:17:07;;;;;;;14.40;10.93;;;;;;;24.27;62.91;100332.50;4895877;29;20217;-66
2022/08/27 06:19:35;;;;;;;16.40;10.73;;;;;;;24.24;62.95;100324.84;4896176;29;20735;-66
2022/08/27 06:22:03;;;;;;;13.30;10.52;;;;;;;24.29;62.98;100327.63;4895796;29;20320;-66
2022/08/27 06:24:39;;;;;;;17.48;10.38;;;;;;;24.28;63.14;100325.97;4896442;29;20268;-66
2022/08/27 06:27:08;;;;;;;19.13;10.95;;;;;;;24.25;63.23;100318.34;4895487;29;20293;-66
2022/08/27 06:29:38;;;;;;;22.85;11.90;;;;;;;24.30;62.98;100325.75;4895692;29;20217;-66
2022/08/27 06:32:06;;;;;;;17.95;11.45;;;;;;;24.32;62.81;100327.16;4896235;29;20217;-65
2022/08/27 06:34:34;;;;;;;20.13;10.65;;;;;;;24.32;62.95;100329.88;4896761;29;20239;-67
2022/08/27 06:37:02;;;;;;;16.52;10.85;;;;;;;24.30;62.96;100323.84;4895879;29;20324;-66
2022/08/27 06:39:30;;;;;;;13.85;10.15;;;;;;;24.30;62.90;100320.31;4897317;29;20277;-66
2022/08/27 06:41:58;;;;;;;14.23;10.77;;;;;;;24.29;63.11;100329.50;4899892;29;20236;-66
2022/08/27 06:44:26;;;;;;;16.88;12.07;;;;;;;24.26;63.26;100330.00;4900280;29;20213;-67
2022/08/27 06:46:55;;;;;;;17.95;11.60;;;;;;;24.30;63.14;100328.44;4906811;29;20215;-67
2022/08/27 06:49:23;;;;;;;14.02;10.88;;;;;;;24.33;62.91;100334.22;4910092;29;20721;-66
2022/08/27 06:51:51;;;;;;;19.52;11.63;;;;;;;24.33;63.11;100328.81;4901273;29;20209;-67
2022/08/27 06:54:18;;;;;;;13.00;9.40;;;;;;;24.31;63.11;100336.34;4900602;29;20220;-66
2022/08/27 06:56:48;;;;;;;16.17;11.65;;;;;;;24.26;63.64;100335.44;4899186;29;20324;-65
2022/08/27 06:59:17;;;;;;;17.63;11.10;;;;;;;24.31;63.33;100341.75;4899647;29;20221;-66
2022/08/27 07:01:49;;;;;;;13.32;9.57;;;;;;;24.30;63.33;100342.81;4899693;29;20218;-67
2022/08/27 07:04:22;;;;;;;18.42;12.00;;;;;;;24.31;63.41;100346.34;4900351;29;20217;-66
2022/08/27 07:07:00;;;;;;;21.52;10.73;;;;;;;24.28;63.18;100344.94;4899314;29;20213;-66
2022/08/27 07:09:29;;;;;;;17.25;10.90;;;;;;;24.37;62.87;100350.81;4899714;29;20249;-66
2022/08/27 07:11:57;;;;;;;16.20;9.98;;;;;;;24.37;62.73;100346.22;4899751;29;20297;-66
2022/08/27 07:14:25;;;;;;;13.90;9.63;;;;;;;24.35;62.71;100353.78;4899116;29;20271;-66
2022/08/27 07:16:53;;;;;;;16.58;10.10;;;;;;;24.35;62.47;100356.50;4899406;29;20213;-66
2022/08/27 07:19:22;;;;;;;21.80;10.15;;;;;;;24.31;62.93;100357.19;4899051;29;20220;-65
2022/08/27 07:21:49;;;;;;;18.95;10.10;;;;;;;24.29;63.02;100351.19;4898584;29;20762;-66
2022/08/27 07:24:18;;;;;;;17.58;9.45;;;;;;;24.33;62.63;100355.91;4899081;29;20217;-66
2022/08/27 07:26:46;;;;;;;17.27;9.13;;;;;;;24.34;62.69;100356.72;4897632;29;20206;-66
2022/08/27 07:29:15;;;;;;;13.85;9.13;;;;;;;24.33;62.47;100355.91;4899317;29;20308;-66
2022/08/27 07:31:43;;;;;;;12.27;8.38;;;;;;;24.36;62.27;100368.16;4898693;29;20209;-66
2022/08/27 07:34:10;;;;;;;15.15;9.05;;;;;;;24.36;62.45;100360.81;4900210;29;20469;-67
2022/08/27 07:36:40;;;;;;;13.55;8.70;;;;;;;24.38;62.50;100364.13;4899761;29;20229;-66
2022/08/27 07:39:08;;;;;;;16.88;9.07;;;;;;;24.40;62.29;100363.88;4899414;29;20244;-66
2022/08/27 07:44:23;;;;;;;16.92;8.57;;;;;;;24.46;61.85;100371.03;4900162;29;20558;-67
2022/08/27 07:44:24;;;;;;;13.07;8.70;;;;;;;24.50;62.08;100371.38;4908507;29;20213;-66
2022/08/27 07:46:56;;;;;;;15.13;8.88;;;;;;;24.51;61.79;100364.91;4904831;29;20272;-66
2022/08/27 07:49:24;;;;;;;14.25;7.85;;;;;;;24.55;61.53;100364.16;4899200;29;20214;-66
2022/08/27 07:51:53;;;;;;;12.88;7.85;;;;;;;24.58;61.53;100369.13;4898036;29;20216;-66
2022/08/27 07:54:22;;;;;;;16.42;7.95;;;;;;;24.59;61.52;100369.94;4899272;29;20604;-65
2022/08/27 07:56:52;;;;;;;12.75;8.05;;;;;;;24.60;61.48;100371.59;4899162;29;20248;-65
2022/08/27 07:59:22;;;;;;;16.15;7.70;;;;;;;24.63;60.98;100373.78;4898643;29;20636;-66
2022/08/27 08:01:51;;;;;;;10.55;6.93;;;;;;;24.64;60.85;100367.31;4898122;29;20661;-66
2022/08/27 08:04:19;;;;;;;14.20;7.43;;;;;;;24.62;60.99;100373.00;4903354;29;20237;-68
2022/08/27 08:06:48;;;;;;;15.48;7.75;;;;;;;24.63;60.94;100371.91;4896634;29;20221;-66
2022/08/27 08:09:17;;;;;;;14.35;8.38;;;;;;;24.64;61.11;100368.13;4897970;29;20209;-67
2022/08/27 08:11:45;;;;;;;11.85;7.80;;;;;;;24.65;60.73;100377.09;4898805;29;20216;-67
2022/08/27 08:14:13;;;;;;;15.13;8.00;;;;;;;24.66;60.77;100376.84;4898506;29;20214;-67
2022/08/27 08:16:41;;;;;;;10.32;7.05;;;;;;;24.64;60.81;100383.56;4898762;29;20209;-67
2022/08/27 08:19:09;;;;;;;12.70;7.90;;;;;;;24.64;60.88;100389.00;4898659;29;20918;-67
2022/08/27 08:21:37;;;;;;;19.83;7.35;;;;;;;24.64;60.49;100394.41;4904506;29;20585;-66
2022/08/27 08:24:05;;;;;;;13.48;7.53;;;;;;;24.59;60.90;100391.63;4904126;29;20751;-66
2022/08/27 08:26:35;;;;;;;12.57;6.78;;;;;;;24.57;61.02;100391.03;4897411;29;20682;-66
2022/08/27 08:29:03;;;;;;;11.40;7.18;;;;;;;24.53;61.28;100388.00;4890747;29;20213;-67
2022/08/27 08:31:31;;;;;;;12.38;7.47;;;;;;;24.54;61.12;100389.63;4897232;29;20317;-65
2022/08/27 08:33:59;;;;;;;15.32;7.68;;;;;;;24.53;61.27;100398.03;4898028;29;20216;-65
2022/08/27 08:36:27;;;;;;;13.80;7.43;;;;;;;24.52;61.56;100394.50;4897252;29;20260;-65
2022/08/27 08:38:55;;;;;;;14.30;7.80;;;;;;;24.54;61.17;100389.63;4901843;29;20209;-66
2022/08/27 08:41:38;;;;;;;14.18;8.45;;;;;;;24.55;61.19;100390.44;4905870;29;20697;-66
2022/08/27 08:44:14;;;;;;;13.18;7.30;;;;;;;24.53;61.29;100396.13;4895281;29;20243;-66
2022/08/27 08:46:48;;;;;;;13.23;7.38;;;;;;;24.55;61.28;100393.16;4893552;29;20219;-67
2022/08/27 08:49:30;;;;;;;18.42;7.78;;;;;;;24.52;61.41;100394.50;4897465;29;20300;-66
2022/08/27 08:52:08;;;;;;;16.25;8.20;;;;;;;24.53;61.26;100398.03;4896717;29;20297;-66
2022/08/27 08:54:37;;;;;;;11.15;7.55;;;;;;;24.55;61.57;100396.69;4890970;29;20431;-66
2022/08/27 08:57:14;;;;;;;12.10;6.82;;;;;;;24.57;61.57;100393.75;4897655;29;20197;-66
2022/08/27 08:59:52;;;;;;;13.32;7.25;;;;;;;24.62;61.35;100396.56;4897125;29;20573;-67
2022/08/27 09:02:20;;;;;;;12.63;7.07;;;;;;;24.65;61.33;100396.06;4897330;29;20209;-66
2022/08/27 09:04:47;;;;;;;13.25;7.03;;;;;;;24.70;60.82;100399.72;4896624;29;20233;-66
2022/08/27 09:07:25;;;;;;;17.00;8.02;;;;;;;24.69;61.31;100399.97;4895940;29;20221;-66
2022/08/27 09:10:03;;;;;;;13.23;6.85;;;;;;;24.77;60.58;100404.16;4897068;29;20213;-66
2022/08/27 09:12:32;;;;;;;13.00;7.03;;;;;;;24.82;60.28;100398.81;4884897;29;20217;-66
2022/08/27 09:15:05;;;;;;;11.05;6.82;;;;;;;24.81;61.00;100400.72;4898094;29;20256;-66
2022/08/27 09:17:40;;;;;;;14.70;6.72;;;;;;;24.84;60.61;100397.53;4898615;29;20213;-67
2022/08/27 09:20:09;;;;;;;15.35;7.82;;;;;;;24.89;60.25;100402.22;4902867;29;20214;-66
2022/08/27 09:22:50;;;;;;;11.85;7.20;;;;;;;24.94;60.25;100400.47;4910347;29;20677;-66
2022/08/27 09:25:20;;;;;;;9.98;6.15;;;;;;;24.95;60.23;100402.09;4897471;29;20213;-66
2022/08/27 09:27:56;;;;;;;15.38;7.20;;;;;;;24.97;60.07;100405.41;4895861;29;20229;-66
2022/08/27 09:30:31;;;;;;;16.38;7.38;;;;;;;24.96;60.18;100403.75;4896857;29;20220;-66
2022/08/27 09:33:05;;;;;;;13.38;7.70;;;;;;;24.97;60.52;100405.41;4893388;29;20232;-66
2022/08/27 09:35:38;;;;;;;15.85;8.13;;;;;;;24.99;60.12;100405.97;4895347;29;20235;-66
2022/08/27 09:38:06;;;;;;;15.23;8.18;;;;;;;24.98;60.18;100403.50;4904292;29;20221;-66
2022/08/27 09:40:41;;;;;;;15.73;7.43;;;;;;;25.03;59.97;100409.84;4895888;29;20308;-66
2022/08/27 09:43:27;;;;;;;19.65;7.30;;;;;;;25.05;59.84;100410.44;4896290;29;20209;-66
2022/08/27 09:45:56;;;;;;;11.05;6.57;;;;;;;25.10;60.04;100399.66;4896300;29;20240;-66
2022/08/27 09:48:27;;;;;;;14.18;7.82;;;;;;;25.20;59.61;100403.59;4895798;29;20237;-67
2022/08/27 09:50:58;;;;;;;12.40;6.97;;;;;;;25.21;59.47;100400.66;4896751;29;20213;-65
2022/08/27 09:53:29;;;;;;;12.70;6.68;;;;;;;25.24;59.56;100396.63;4896532;29;20873;-66
2022/08/27 09:56:00;;;;;;;12.80;7.13;;;;;;;25.26;59.25;100408.88;4898133;29;20246;-66
2022/08/27 09:58:32;;;;;;;12.00;7.43;;;;;;;25.31;58.92;100402.72;4895599;29;20205;-66
2022/08/27 10:01:04;;;;;;;11.18;7.72;;;;;;;25.33;58.93;100408.72;4896048;29;20663;-66
2022/08/27 10:03:32;;;;;;;12.90;6.35;;;;;;;25.32;59.35;100404.38;4896740;29;20234;-66
2022/08/27 10:06:00;;;;;;;12.57;6.03;;;;;;;25.37;59.17;100399.84;4895415;29;20216;-66
2022/08/27 10:08:37;;;;;;;10.82;5.72;;;;;;;25.41;59.61;100400.19;4902581;29;20210;-66
2022/08/27 10:11:11;;;;;;;9.27;5.93;;;;;;;25.41;58.82;100398.28;4897144;29;20569;-66
2022/08/27 10:13:50;;;;;;;14.65;6.95;;;;;;;25.46;58.66;100392.09;4895931;29;20224;-66
2022/08/27 10:16:36;;;;;;;11.90;6.53;;;;;;;25.53;58.85;100392.75;4896311;29;20733;-65
2022/08/27 10:19:16;;;;;;;15.15;7.10;;;;;;;25.58;58.08;100389.31;4896054;29;20288;-65
2022/08/27 10:21:48;;;;;;;11.43;6.18;;;;;;;25.60;58.42;100387.16;4904496;29;20283;-66
2022/08/27 10:24:27;;;;;;;14.48;5.93;;;;;;;25.63;57.97;100386.69;4900061;29;20239;-66
2022/08/27 10:27:07;;;;;;;12.25;7.05;;;;;;;25.63;58.02;100387.50;4895229;29;20285;-66
2022/08/27 10:29:43;;;;;;;13.35;6.45;;;;;;;25.69;57.77;100389.22;4895788;29;20209;-66
2022/08/27 10:32:28;;;;;;;11.05;7.45;;;;;;;25.76;57.56;100387.16;4897065;29;20554;-66
2022/08/27 10:35:07;;;;;;;15.50;6.72;;;;;;;25.82;57.57;100385.34;4905697;29;20211;-66
2022/08/27 10:37:45;;;;;;;10.68;6.47;;;;;;;25.84;57.83;100388.63;4901799;29;20328;-66
2022/08/27 10:40:19;;;;;;;10.80;6.55;;;;;;;25.86;57.66;100386.47;4890683;29;20217;-66
2022/08/27 10:42:58;;;;;;;12.20;6.20;;;;;;;25.93;57.13;100398.00;4896336;29;20699;-66
2022/08/27 10:45:41;;;;;;;11.35;6.65;;;;;;;25.91;57.58;100389.28;4894357;29;20235;-66
2022/08/27 10:48:23;;;;;;;12.60;7.13;;;;;;;25.94;57.26;100387.97;4895756;29;20248;-66
2022/08/27 10:50:56;;;;;;;8.98;6.63;;;;;;;25.95;57.53;100387.69;4902399;29;20278;-66
2022/08/27 10:53:32;;;;;;;10.63;6.40;;;;;;;26.04;56.98;100388.06;4894730;29;20210;-67
2022/08/27 10:56:13;;;;;;;10.27;6.90;;;;;;;26.12;56.66;100393.09;4903704;29;20236;-66
2022/08/27 10:59:02;;;;;;;11.40;7.20;;;;;;;26.22;56.13;100385.88;4897278;29;20206;-66
2022/08/27 11:01:40;;;;;;;11.32;6.85;;;;;;;26.38;55.62;100384.22;4895645;29;20213;-66
2022/08/27 11:04:13;;;;;;;12.95;6.65;;;;;;;26.45;55.39;100378.56;4885053;29;20261;-66
2022/08/27 11:06:46;;;;;;;15.50;7.88;;;;;;;26.49;55.94;100380.50;4895583;29;20632;-66
2022/08/27 11:09:19;;;;;;;10.95;7.03;;;;;;;26.61;55.49;100383.09;4895494;29;20224;-66
2022/08/27 11:11:51;;;;;;;12.25;7.10;;;;;;;26.60;54.86;100378.72;4897806;29;20300;-70
2022/08/27 11:14:51;;;;;;;12.13;6.15;;;;;;;26.51;54.95;100375.66;4896051;29;20205;-67
2022/08/27 11:17:29;;;;;;;9.43;5.57;;;;;;;26.44;55.27;100377.75;4895321;29;20205;-65
2022/08/27 11:20:07;;;;;;;11.52;6.60;;;;;;;26.58;55.65;100380.88;4897546;29;20679;-66
2022/08/27 11:22:40;;;;;;;10.23;6.13;;;;;;;26.60;54.89;100379.56;4895705;29;20586;-66
2022/08/27 11:25:27;;;;;;;11.68;6.57;;;;;;;26.62;55.09;100376.59;4897054;29;20669;-66
2022/08/27 11:27:57;;;;;;;12.32;6.55;;;;;;;27.08;53.67;100372.44;4899314;29;20240;-66
2022/08/27 11:30:32;;;;;;;8.65;6.38;;;;;;;27.21;53.00;100376.63;4899819;29;20300;-66
2022/08/27 11:33:09;;;;;;;9.45;6.30;;;;;;;27.28;53.11;100378.03;4899479;29;20304;-67
2022/08/27 11:35:54;;;;;;;10.82;6.15;;;;;;;27.39;52.65;100376.22;4900686;29;20256;-66
2022/08/27 11:38:38;;;;;;;9.75;6.00;;;;;;;27.57;52.20;100366.84;4904510;29;20225;-66
2022/08/27 11:41:25;;;;;;;10.00;6.30;;;;;;;27.80;51.55;100374.59;4898938;29;20217;-66
2022/08/27 11:43:54;;;;;;;10.65;6.07;;;;;;;27.54;51.84;100370.09;4888482;29;20213;-66
2022/08/27 11:46:24;;;;;;;10.93;5.80;;;;;;;27.30;52.70;100375.88;4898318;29;20332;-67
2022/08/27 11:49:00;;;;;;;10.00;6.20;;;;;;;27.17;53.14;100379.06;4903898;29;20212;-65
2022/08/27 11:51:33;;;;;;;8.63;6.20;;;;;;;27.04;53.56;100370.47;4902467;29;20219;-67
2022/08/27 11:54:05;;;;;;;9.15;5.80;;;;;;;26.97;54.00;100365.25;4898295;29;20202;-66
2022/08/27 11:56:39;;;;;;;11.20;5.85;;;;;;;26.88;54.58;100374.94;4899770;29;20259;-65
2022/08/27 11:59:20;;;;;;;9.23;5.85;;;;;;;26.78;54.58;100369.41;4899656;29;20221;-66
2022/08/27 12:01:48;;;;;;;14.57;6.65;;;;;;;26.68;54.92;100361.13;4898585;29;20685;-66
2022/08/27 12:04:32;;;;;;;10.13;6.68;;;;;;;26.62;55.01;100360.28;4898095;29;20222;-66
2022/08/27 12:07:04;;;;;;;9.57;6.45;;;;;;;26.54;54.62;100367.00;4898029;29;20218;-67
2022/08/27 12:09:54;;;;;;;9.80;6.38;;;;;;;26.45;55.29;100363.09;4897896;29;20216;-67
2022/08/27 12:12:33;;;;;;;13.98;6.68;;;;;;;26.44;55.37;100366.06;4897879;29;20308;-66
2022/08/27 12:15:05;;;;;;;9.95;5.90;;;;;;;26.39;55.51;100361.34;4898817;29;20316;-65
2022/08/27 12:17:41;;;;;;;11.95;6.55;;;;;;;26.38;55.88;100358.91;4898828;29;20414;-66
2022/08/27 12:20:20;;;;;;;13.05;8.85;;;;;;;26.35;55.80;100357.53;4898970;29;20221;-65
2022/08/27 12:25:58;;;;;;;18.33;7.13;;;;;;;26.30;56.24;100359.38;4897533;29;20315;-65
2022/08/27 12:28:26;;;;;;;10.43;6.07;;;;;;;26.27;56.11;100357.97;4896396;29;20312;-67
2022/08/27 12:30:55;;;;;;;10.85;6.78;;;;;;;26.26;56.49;100353.63;4896435;29;20217;-66
2022/08/27 12:33:30;;;;;;;10.68;5.93;;;;;;;26.24;56.25;100350.28;4897174;29;20217;-66
2022/08/27 12:36:07;;;;;;;9.13;5.70;;;;;;;26.21;56.25;100350.81;4890910;29;20243;-66
2022/08/27 12:38:43;;;;;;;10.13;6.72;;;;;;;26.17;55.98;100349.66;4900636;29;20252;-66
2022/08/27 12:41:25;;;;;;;9.60;5.88;;;;;;;26.17;57.01;100349.66;4897558;29;20252;-67
2022/08/27 12:44:03;;;;;;;12.15;6.47;;;;;;;26.16;56.60;100342.59;4896510;29;20633;-67
2022/08/27 12:46:31;;;;;;;10.35;6.38;;;;;;;26.16;56.43;100348.84;4897949;29;20237;-66
2022/08/27 12:49:03;;;;;;;15.55;6.68;;;;;;;26.17;56.43;100346.94;4897344;29;20651;-66
2022/08/27 12:51:53;;;;;;;9.48;5.53;;;;;;;26.12;56.50;100346.91;4897729;29;20213;-66
2022/08/27 12:54:34;;;;;;;9.95;5.82;;;;;;;26.14;56.55;100347.44;4897734;29;20260;-66
2022/08/27 12:57:09;;;;;;;9.65;6.10;;;;;;;26.12;56.83;100341.47;4897325;29;20214;-67
2022/08/27 13:00:00;;;;;;;13.18;6.28;;;;;;;26.12;56.89;100341.47;4896927;29;20300;-67
2022/08/27 13:02:48;;;;;;;7.60;5.82;;;;;;;26.09;56.59;100333.81;4896363;29;20202;-66
2022/08/27 13:05:20;;;;;;;9.80;6.63;;;;;;;26.07;56.53;100339.50;4896590;29;20245;-66
2022/08/27 13:07:51;;;;;;;11.48;6.05;;;;;;;26.11;56.43;100343.34;4896099;29;20224;-66
2022/08/27 13:10:21;;;;;;;10.93;6.70;;;;;;;26.11;56.52;100334.38;4896651;29;20216;-66
2022/08/27 13:13:02;;;;;;;11.68;6.20;;;;;;;26.12;56.58;100338.75;4897499;29;20588;-66
2022/08/27 13:15:30;;;;;;;12.18;6.05;;;;;;;26.13;57.00;100329.50;4897980;29;20560;-66
2022/08/27 13:17:58;;;;;;;10.27;5.95;;;;;;;26.15;56.62;100330.06;4890551;29;20213;-67
2022/08/27 13:20:31;;;;;;;10.35;6.22;;;;;;;26.17;56.27;100330.63;4896760;29;20308;-67
2022/08/27 13:23:00;;;;;;;9.75;6.07;;;;;;;26.15;56.46;100330.06;4895472;29;20216;-67
2022/08/27 13:25:33;;;;;;;10.65;6.70;;;;;;;26.14;55.94;100325.69;4895103;29;20244;-66
2022/08/27 13:28:06;;;;;;;8.50;6.20;;;;;;;26.12;56.03;100323.22;4894596;29;20300;-66
2022/08/27 13:30:37;;;;;;;9.18;6.40;;;;;;;26.11;56.14;100324.34;4903070;29;20666;-67
2022/08/27 13:33:07;;;;;;;10.32;6.43;;;;;;;26.10;55.79;100330.03;4895588;29;20586;-67
2022/08/27 13:35:36;;;;;;;12.48;6.18;;;;;;;26.08;55.87;100329.44;4895219;29;20240;-66
2022/08/27 13:38:06;;;;;;;9.82;6.45;;;;;;;26.11;55.93;100324.34;4894683;29;20224;-67
2022/08/27 13:40:37;;;;;;;13.10;6.35;;;;;;;26.12;56.05;100322.44;4895619;29;20214;-67
2022/08/27 13:43:09;;;;;;;8.77;6.20;;;;;;;26.12;56.41;100325.16;4895601;29;20217;-67
2022/08/27 13:45:40;;;;;;;9.65;6.22;;;;;;;26.15;56.18;100324.63;4894685;29;20327;-66
2022/08/27 13:48:11;;;;;;;9.43;6.22;;;;;;;26.15;55.68;100327.34;4894111;29;20217;-66
2022/08/27 13:50:49;;;;;;;9.07;5.82;;;;;;;26.17;55.45;100317.06;4895472;29;20213;-66
2022/08/27 13:56:08;;;;;;;7.63;5.88;;;;;;;26.23;55.26;100313.31;4896975;29;20241;-67
2022/08/27 13:58:37;;;;;;;8.45;6.13;;;;;;;26.24;55.29;100309.53;4894310;29;20600;-67
2022/08/27 14:01:10;;;;;;;9.10;6.30;;;;;;;26.31;55.63;100312.88;4888677;29;20709;-66
2022/08/27 14:03:47;;;;;;;9.35;5.50;;;;;;;26.35;55.18;100305.88;4894996;29;20252;-66
2022/08/27 14:06:27;;;;;;;10.25;5.63;;;;;;;26.40;55.15;100305.91;4895610;29;20221;-67
2022/08/27 14:09:15;;;;;;;8.18;5.75;;;;;;;26.44;55.43;100307.06;4895962;29;20686;-66
2022/08/27 14:11:44;;;;;;;8.40;6.07;;;;;;;26.49;55.42;100300.84;4894717;29;20224;-67
2022/08/27 14:14:13;;;;;;;7.40;5.53;;;;;;;26.52;54.73;100301.16;4895685;29;20239;-66
2022/08/27 14:16:41;;;;;;;10.93;7.35;;;;;;;26.54;54.66;100296.28;4895041;29;20309;-65
2022/08/27 14:19:11;;;;;;;9.10;6.45;;;;;;;26.63;54.69;100303.97;4899145;29;20426;-66
2022/08/27 14:21:46;;;;;;;10.52;6.47;;;;;;;26.69;54.25;100303.75;4902167;29;20304;-66
2022/08/27 14:24:15;;;;;;;9.50;5.80;;;;;;;26.76;53.82;100308.97;4892552;29;20212;-66
2022/08/27 14:26:43;;;;;;;8.95;6.40;;;;;;;26.79;53.79;100312.03;4894330;29;20221;-66
2022/08/27 14:29:10;;;;;;;8.95;6.18;;;;;;;26.90;53.53;100307.50;4896067;29;20558;-67
2022/08/27 14:31:39;;;;;;;11.05;5.95;;;;;;;26.88;53.42;100307.75;4895018;29;20217;-66
2022/08/27 14:34:07;;;;;;;8.68;7.13;;;;;;;26.91;53.33;100298.28;4895307;29;20276;-67
2022/08/27 14:36:38;;;;;;;11.25;5.45;;;;;;;26.92;53.38;100303.44;4894044;29;20699;-67
2022/08/27 14:39:06;;;;;;;11.38;6.18;;;;;;;26.98;53.21;100307.03;4895192;29;20304;-66
2022/08/27 14:41:35;;;;;;;8.80;5.80;;;;;;;27.06;52.66;100303.03;4895051;29;20730;-66
2022/08/27 14:44:04;;;;;;;11.73;5.97;;;;;;;27.01;52.33;100298.34;4895577;29;20213;-66
2022/08/27 14:46:35;;;;;;;8.32;5.95;;;;;;;27.01;52.35;100306.50;4895002;29;20233;-66
2022/08/27 14:49:13;;;;;;;8.52;5.45;;;;;;;26.99;52.26;100308.69;4894656;29;20212;-66
2022/08/27 14:51:42;;;;;;;8.52;5.40;;;;;;;26.94;52.14;100306.72;4894575;29;20206;-66
2022/08/27 14:54:10;;;;;;;10.52;6.40;;;;;;;26.89;52.32;100312.13;4895061;29;20212;-66
2022/08/27 14:56:39;;;;;;;9.15;5.70;;;;;;;26.86;52.35;100314.53;4896319;29;20725;-66
2022/08/27 14:59:07;;;;;;;7.07;5.30;;;;;;;26.82;52.31;100310.69;4895345;29;20647;-67
2022/08/27 15:01:36;;;;;;;11.65;6.43;;;;;;;26.75;52.50;100319.03;4898649;29;20252;-67
2022/08/27 15:04:06;;;;;;;12.75;7.45;;;;;;;26.69;52.86;100309.19;4906173;29;20221;-67
2022/08/27 15:06:34;;;;;;;13.25;6.65;;;;;;;26.64;52.78;100313.78;4905257;29;20597;-67
2022/08/27 15:09:01;;;;;;;9.55;6.88;;;;;;;26.60;52.81;100317.00;4899819;29;20221;-66
2022/08/27 15:11:34;;;;;;;7.88;6.80;;;;;;;26.60;53.05;100321.63;4899258;29;20244;-66
2022/08/27 15:14:10;;;;;;;9.38;7.10;;;;;;;26.59;52.88;100328.97;4898624;29;20228;-66
2022/08/27 15:16:40;;;;;;;10.27;7.00;;;;;;;26.59;52.97;100314.53;4898268;29;20241;-66
2022/08/27 15:19:10;;;;;;;10.90;7.03;;;;;;;26.60;52.91;100322.44;4898309;29;20232;-67
2022/08/27 15:21:39;;;;;;;10.40;6.82;;;;;;;26.62;52.65;100318.66;4904652;29;20212;-66
2022/08/27 15:24:16;;;;;;;11.90;7.13;;;;;;;26.57;52.82;100316.69;4916268;29;20223;-66
2022/08/27 15:26:44;;;;;;;10.52;8.00;;;;;;;26.50;53.03;100316.91;4889438;29;20232;-67
2022/08/27 15:29:14;;;;;;;11.43;7.80;;;;;;;26.46;53.42;100318.50;4898736;29;20233;-66
2022/08/27 15:31:42;;;;;;;10.25;7.40;;;;;;;26.44;53.46;100317.94;4898494;29;20659;-66
2022/08/27 15:34:11;;;;;;;13.15;9.63;;;;;;;26.41;53.58;100320.34;4898657;29;20209;-66
2022/08/27 15:36:39;;;;;;;9.55;6.80;;;;;;;26.38;53.79;100318.97;4896923;29;20233;-66
2022/08/27 15:39:08;;;;;;;9.30;7.30;;;;;;;26.35;53.83;100315.94;4899389;29;20222;-65
2022/08/27 15:41:38;;;;;;;10.07;7.30;;;;;;;26.34;53.79;100317.00;4898339;29;20205;-65
2022/08/27 15:44:27;;;;;;;12.73;7.40;;;;;;;26.30;54.08;100311.25;4899357;29;20236;-67
2022/08/27 15:46:54;;;;;;;8.57;6.75;;;;;;;26.27;54.02;100311.78;4897982;29;20236;-66
2022/08/27 15:49:22;;;;;;;8.43;6.80;;;;;;;26.26;54.16;100310.13;4909444;29;20239;-66
2022/08/27 15:51:50;;;;;;;12.10;7.68;;;;;;;26.24;54.15;100317.66;4900102;29;20220;-66
2022/08/27 15:54:18;;;;;;;8.02;6.57;;;;;;;26.22;54.01;100312.50;4898123;29;20221;-67
2022/08/27 15:56:46;;;;;;;9.82;7.18;;;;;;;26.14;54.42;100307.50;4899315;29;20253;-67
2022/08/27 15:59:14;;;;;;;9.65;7.47;;;;;;;26.12;54.58;100303.41;4897843;29;20213;-66
2022/08/27 16:01:43;;;;;;;11.77;7.57;;;;;;;26.11;54.60;100312.66;4898357;29;20312;-67
2022/08/27 16:04:11;;;;;;;11.35;7.53;;;;;;;26.08;54.53;100315.84;4898975;29;20221;-67
2022/08/27 16:06:39;;;;;;;10.65;6.90;;;;;;;26.04;54.50;100314.72;4898417;29;20236;-68
2022/08/27 16:09:07;;;;;;;11.52;7.15;;;;;;;26.04;54.84;100317.44;4889067;29;20260;-66
2022/08/27 16:11:35;;;;;;;11.48;7.50;;;;;;;26.04;54.61;100322.84;4901619;29;20340;-66
2022/08/27 16:14:03;;;;;;;11.30;6.90;;;;;;;26.06;54.72;100315.28;4897100;29;20620;-67
2022/08/27 16:16:32;;;;;;;8.10;6.43;;;;;;;26.07;54.70;100315.03;4895563;29;20216;-67
2022/08/27 16:19:02;;;;;;;8.38;6.40;;;;;;;26.11;54.52;100312.66;4896531;29;20304;-67
2022/08/27 16:21:33;;;;;;;8.02;6.18;;;;;;;26.11;54.38;100318.06;4900760;29;20221;-65
2022/08/27 16:24:01;;;;;;;9.68;6.55;;;;;;;26.12;54.38;100312.38;4892168;29;20586;-66
2022/08/27 16:26:29;;;;;;;10.02;6.88;;;;;;;26.12;54.29;100314.28;4897709;29;20209;-66
2022/08/27 16:28:57;;;;;;;8.75;6.97;;;;;;;26.13;54.30;100315.91;4890544;29;20235;-66
2022/08/27 16:31:25;;;;;;;11.38;7.60;;;;;;;26.12;54.32;100317.00;4898459;29;20209;-65
2022/08/27 16:33:54;;;;;;;9.38;7.38;;;;;;;26.13;54.45;100321.34;4898058;29;20221;-66
2022/08/27 16:36:23;;;;;;;10.05;7.10;;;;;;;26.16;54.31;100315.41;4896108;29;20247;-66
2022/08/27 16:38:51;;;;;;;8.05;6.90;;;;;;;26.17;54.20;100306.19;4897051;29;20214;-66
2022/08/27 16:41:20;;;;;;;8.18;6.53;;;;;;;26.18;53.98;100318.69;4896792;29;20324;-66
2022/08/27 16:43:47;;;;;;;8.20;6.72;;;;;;;26.18;53.77;100319.53;4896957;29;20217;-66
2022/08/27 16:46:15;;;;;;;9.88;6.38;;;;;;;26.15;53.82;100320.03;4896803;29;20221;-66
2022/08/27 16:51:42;;;;;;;9.55;6.32;;;;;;;26.12;54.12;100317.00;4842395;29;20230;-67
2022/08/27 16:54:12;;;;;;;8.27;5.82;;;;;;;26.12;54.09;100317.81;4879062;29;20224;-68
2022/08/27 16:56:40;;;;;;;8.05;6.22;;;;;;;26.14;53.99;100312.13;4897795;29;20245;-66
2022/08/27 16:59:11;;;;;;;14.60;6.13;;;;;;;26.11;54.08;100318.06;4896411;29;20213;-66
2022/08/27 17:01:41;;;;;;;10.60;6.07;;;;;;;26.12;54.02;100322.44;4895985;29;20210;-67
2022/08/27 17:04:09;;;;;;;12.98;6.30;;;;;;;26.08;54.08;100324.84;4896514;29;20224;-67
2022/08/27 17:06:50;;;;;;;7.85;6.40;;;;;;;26.07;54.14;100320.47;4895919;29;20209;-66
2022/08/27 17:09:18;;;;;;;7.18;5.63;;;;;;;26.05;54.08;100316.34;4896917;29;20216;-67
2022/08/27 17:11:52;;;;;;;9.18;5.90;;;;;;;26.06;54.21;100315.28;4897140;29;20210;-66
2022/08/27 17:14:20;;;;;;;10.75;6.20;;;;;;;26.03;54.28;100318.53;4896810;29;20220;-66
2022/08/27 17:16:48;;;;;;;8.00;6.05;;;;;;;26.02;54.31;100322.31;4910869;29;20221;-66
2022/08/27 17:19:17;;;;;;;11.85;6.10;;;;;;;26.02;54.00;100333.19;4896630;29;20217;-67
2022/08/27 17:21:45;;;;;;;9.00;5.90;;;;;;;26.00;54.19;100338.03;4904226;29;20339;-67
2022/08/27 17:24:14;;;;;;;7.65;6.35;;;;;;;25.98;54.21;100340.19;4901330;29;20384;-67
2022/08/27 17:26:42;;;;;;;7.63;5.88;;;;;;;25.93;54.44;100331.97;4895850;29;20209;-67
2022/08/27 17:29:10;;;;;;;9.70;6.35;;;;;;;25.94;54.28;100337.16;4902793;29;20241;-66
2022/08/27 17:31:42;;;;;;;8.77;6.45;;;;;;;25.94;54.42;100339.06;4896444;29;20209;-66
2022/08/27 17:34:15;;;;;;;9.02;6.50;;;;;;;25.92;54.34;100338.47;4896177;29;20687;-67
2022/08/27 17:36:43;;;;;;;9.73;6.57;;;;;;;25.87;54.57;100336.50;4895303;29;20232;-66
2022/08/27 17:39:11;;;;;;;8.82;6.22;;;;;;;25.83;54.80;100338.91;4907253;29;20265;-66
2022/08/27 17:41:43;;;;;;;9.77;6.35;;;;;;;25.80;54.54;100344.84;4898239;29;20213;-67
2022/08/27 17:44:16;;;;;;;8.18;6.32;;;;;;;25.80;54.80;100338.59;4896605;29;20261;-67
2022/08/27 17:46:44;;;;;;;8.07;6.07;;;;;;;25.79;54.49;100343.19;4893878;29;20730;-66
2022/08/27 17:49:12;;;;;;;9.05;6.78;;;;;;;25.78;54.70;100341.56;4894899;29;20237;-67